createdAt,value
2023-05-15T00:01:21.768Z,6.03
2023-05-15T00:03:48.600Z,6.65
2023-05-15T00:06:15.306Z,7.32
2023-05-15T00:08:41.832Z,7.78
2023-05-15T00:11:08.463Z,8.07
2023-05-15T00:13:34.936Z,7.70
2023-05-15T00:16:01.449Z,7.90
2023-05-15T00:18:28.033Z,7.55
2023-05-15T00:20:54.585Z,7.70
2023-05-15T00:23:21.004Z,7.53
2023-05-15T00:25:47.645Z,7.85
2023-05-15T00:28:14.075Z,7.32
2023-05-15T00:30:40.623Z,7.40
2023-05-15T00:33:07.896Z,8.20
2023-05-15T00:35:34.450Z,7.87
2023-05-15T00:38:01.034Z,8.30
2023-05-15T00:40:28.548Z,7.18
2023-05-15T00:42:55.837Z,8.45
2023-05-15T00:45:22.975Z,7.95
2023-05-15T00:47:50.415Z,8.63
2023-05-15T00:50:17.130Z,8.80
2023-05-15T00:52:43.774Z,9.00
2023-05-15T00:55:10.298Z,8.75
2023-05-15T00:57:38.266Z,8.63
2023-05-15T01:00:10.385Z,8.63
2023-05-15T01:02:37.713Z,8.95
2023-05-15T01:05:05.301Z,8.80
2023-05-15T01:07:35.072Z,9.43
2023-05-15T01:10:04.357Z,8.00
2023-05-15T01:12:32.617Z,8.07
2023-05-15T01:14:59.365Z,8.52
2023-05-15T01:17:26.018Z,8.35
2023-05-15T01:19:52.901Z,8.63
2023-05-15T01:22:41.205Z,9.70
2023-05-15T01:25:26.194Z,9.73
2023-05-15T01:27:56.806Z,9.15
2023-05-15T01:30:29.034Z,9.18
2023-05-15T01:33:17.470Z,8.82
2023-05-15T01:36:06.012Z,9.60
2023-05-15T01:38:44.715Z,9.30
2023-05-15T01:41:17.031Z,8.88
2023-05-15T01:43:48.631Z,8.30
2023-05-15T01:46:19.874Z,9.82
2023-05-15T01:48:48.236Z,9.65
2023-05-15T01:51:15.393Z,8.63
2023-05-15T01:53:43.413Z,9.38
2023-05-15T01:56:12.523Z,9.05
2023-05-15T01:58:41.038Z,7.90
2023-05-15T02:01:09.229Z,8.63
2023-05-15T02:03:37.473Z,8.93
2023-05-15T02:06:06.044Z,8.95
2023-05-15T02:08:33.249Z,9.52
2023-05-15T02:11:02.020Z,9.82
2023-05-15T02:13:29.157Z,10.20
2023-05-15T02:15:55.891Z,12.00
2023-05-15T02:18:22.760Z,10.73
2023-05-15T02:20:49.480Z,11.35
2023-05-15T02:23:15.957Z,11.63
2023-05-15T02:25:50.438Z,11.35
2023-05-15T02:28:43.013Z,12.50
2023-05-15T02:31:24.870Z,11.85
2023-05-15T02:33:59.146Z,11.93
2023-05-15T02:36:32.329Z,11.80
2023-05-15T02:39:00.000Z,12.18
2023-05-15T02:41:27.145Z,13.57
2023-05-15T02:43:55.592Z,12.30
2023-05-15T02:46:25.133Z,12.63
2023-05-15T02:48:52.772Z,11.90
2023-05-15T02:51:19.815Z,13.10
2023-05-15T02:53:46.566Z,12.43
2023-05-15T02:56:13.097Z,13.02
2023-05-15T02:58:39.950Z,13.70
2023-05-15T03:01:06.986Z,15.02
2023-05-15T03:03:33.704Z,14.02
2023-05-15T03:06:01.129Z,14.40
2023-05-15T03:08:27.749Z,13.57
2023-05-15T03:10:54.315Z,13.25
2023-05-15T03:13:20.806Z,13.07
2023-05-15T03:15:47.430Z,14.05
2023-05-15T03:18:15.312Z,15.43
2023-05-15T03:20:43.646Z,15.45
2023-05-15T03:23:10.242Z,14.82
2023-05-15T03:25:36.830Z,14.27
2023-05-15T03:28:03.296Z,14.20
2023-05-15T03:30:29.868Z,14.63
2023-05-15T03:32:57.704Z,13.65
2023-05-15T03:35:24.722Z,14.20
2023-05-15T03:37:51.348Z,14.18
2023-05-15T03:40:18.080Z,14.20
2023-05-15T03:42:44.575Z,14.60
2023-05-15T03:45:11.293Z,14.02
2023-05-15T03:47:37.952Z,13.38
2023-05-15T03:50:05.031Z,13.07
2023-05-15T03:52:31.575Z,12.93
2023-05-15T03:54:58.102Z,12.37
2023-05-15T03:57:24.621Z,11.90
2023-05-15T03:59:51.136Z,12.23
2023-05-15T04:02:17.707Z,12.25
2023-05-15T04:04:44.742Z,11.43
2023-05-15T04:07:11.340Z,11.67
2023-05-15T04:09:38.742Z,13.15
2023-05-15T04:12:05.688Z,11.82
2023-05-15T04:14:32.186Z,12.60
2023-05-15T04:16:58.836Z,11.77
2023-05-15T04:19:25.271Z,12.17
2023-05-15T04:21:51.733Z,12.63
2023-05-15T04:24:18.198Z,11.55
2023-05-15T04:26:44.695Z,12.10
2023-05-15T04:29:11.572Z,11.48
2023-05-15T04:31:38.539Z,11.60
2023-05-15T04:34:05.223Z,12.23
2023-05-15T04:36:32.247Z,12.27
2023-05-15T04:38:58.863Z,12.15
2023-05-15T04:41:25.460Z,12.57
2023-05-15T04:43:52.084Z,11.50
2023-05-15T04:46:18.681Z,11.57
2023-05-15T04:48:45.430Z,12.10
2023-05-15T04:51:12.216Z,12.20
2023-05-15T04:53:38.768Z,12.68
2023-05-15T04:56:05.464Z,13.63
2023-05-15T04:58:32.027Z,14.18
2023-05-15T05:00:58.543Z,13.85
2023-05-15T05:03:25.092Z,14.20
2023-05-15T05:05:51.610Z,13.90
2023-05-15T05:08:18.066Z,12.43
2023-05-15T05:10:44.691Z,12.90
2023-05-15T05:13:11.204Z,12.73
2023-05-15T05:15:38.033Z,14.07
2023-05-15T05:18:05.174Z,11.90
2023-05-15T05:20:31.986Z,12.07
2023-05-15T05:22:58.480Z,12.00
2023-05-15T05:25:25.255Z,12.07
2023-05-15T05:27:52.397Z,13.20
2023-05-15T05:30:19.030Z,12.40
2023-05-15T05:32:45.552Z,10.93
2023-05-15T05:35:12.188Z,12.52
2023-05-15T05:37:40.313Z,12.77
2023-05-15T05:40:08.865Z,11.68
2023-05-15T05:42:35.411Z,12.38
2023-05-15T05:45:02.012Z,10.40
2023-05-15T05:47:28.569Z,11.30
2023-05-15T05:49:55.214Z,10.40
2023-05-15T05:52:21.808Z,12.07
2023-05-15T05:54:48.402Z,11.32
2023-05-15T05:57:15.073Z,10.77
2023-05-15T05:59:41.729Z,11.55
2023-05-15T06:02:08.890Z,12.65
2023-05-15T06:04:35.451Z,12.52
2023-05-15T06:07:02.420Z,13.05
2023-05-15T06:09:29.345Z,12.50
2023-05-15T06:11:56.184Z,12.50
2023-05-15T06:14:23.330Z,12.20
2023-05-15T06:16:52.052Z,11.98
2023-05-15T06:19:18.654Z,12.10
2023-05-15T06:21:46.209Z,13.07
2023-05-15T06:24:12.834Z,11.80
2023-05-15T06:26:39.493Z,11.70
2023-05-15T06:29:09.306Z,12.48
2023-05-15T06:31:36.244Z,11.23
2023-05-15T06:34:03.006Z,11.03
2023-05-15T06:36:30.101Z,11.65
2023-05-15T06:38:56.689Z,10.98
2023-05-15T06:41:23.404Z,11.02
2023-05-15T06:43:49.970Z,11.32
2023-05-15T06:46:19.195Z,11.30
2023-05-15T06:48:45.983Z,11.82
2023-05-15T06:51:15.043Z,11.27
2023-05-15T06:53:42.198Z,12.07
2023-05-15T06:56:11.721Z,11.77
2023-05-15T06:58:38.431Z,11.10
2023-05-15T07:01:06.525Z,11.10
2023-05-15T07:03:35.544Z,12.43
2023-05-15T07:06:02.138Z,11.80
2023-05-15T07:08:28.675Z,11.50
2023-05-15T07:10:57.358Z,11.80
2023-05-15T07:13:23.972Z,10.98
2023-05-15T07:15:50.690Z,11.73
2023-05-15T07:18:18.046Z,11.77
2023-05-15T07:20:45.061Z,11.65
2023-05-15T07:23:11.742Z,11.63
2023-05-15T07:25:38.444Z,12.20
2023-05-15T07:28:07.746Z,13.43
2023-05-15T07:30:34.406Z,11.48
2023-05-15T07:33:01.191Z,11.13
2023-05-15T07:35:31.321Z,12.77
2023-05-15T07:37:58.985Z,11.10
2023-05-15T07:40:25.697Z,12.20
2023-05-15T07:42:52.327Z,11.20
2023-05-15T07:45:19.062Z,11.90
2023-05-15T07:47:47.269Z,10.73
2023-05-15T07:50:14.290Z,10.77
2023-05-15T07:52:41.535Z,11.65
2023-05-15T07:55:09.242Z,12.00
2023-05-15T07:57:38.323Z,11.70
2023-05-15T08:00:10.338Z,12.30
2023-05-15T08:02:37.452Z,12.02
2023-05-15T08:05:05.391Z,12.27
2023-05-15T08:07:33.757Z,12.10
2023-05-15T08:10:00.760Z,11.35
2023-05-15T08:12:27.480Z,11.57
2023-05-15T08:14:55.665Z,10.70
2023-05-15T08:17:23.318Z,10.20
2023-05-15T08:19:50.142Z,9.90
2023-05-15T08:22:26.538Z,9.75
2023-05-15T08:24:53.036Z,10.47
2023-05-15T08:27:19.578Z,10.48
2023-05-15T08:29:46.118Z,10.27
2023-05-15T08:32:12.697Z,10.45
2023-05-15T08:34:39.230Z,11.18
2023-05-15T08:37:06.431Z,10.37
2023-05-15T08:39:33.450Z,10.70
2023-05-15T08:42:13.904Z,9.70
2023-05-15T08:44:41.605Z,9.52
2023-05-15T08:47:09.175Z,10.10
2023-05-15T08:50:04.419Z,10.37
2023-05-15T08:52:33.013Z,9.55
2023-05-15T08:55:01.247Z,10.18
2023-05-15T08:57:28.683Z,10.00
2023-05-15T08:59:56.687Z,10.60
2023-05-15T09:02:25.875Z,10.97
2023-05-15T09:04:52.638Z,11.05
2023-05-15T09:07:20.466Z,10.80
2023-05-15T09:09:47.509Z,10.98
2023-05-15T09:12:15.893Z,11.15
2023-05-15T09:14:43.404Z,11.57
2023-05-15T09:17:11.542Z,11.43
2023-05-15T09:19:41.945Z,11.70
2023-05-15T09:22:23.318Z,10.65
2023-05-15T09:24:53.277Z,10.35
2023-05-15T09:27:20.638Z,9.83
2023-05-15T09:29:47.328Z,10.35
2023-05-15T09:32:15.247Z,9.40
2023-05-15T09:34:44.003Z,10.43
2023-05-15T09:37:13.267Z,10.50
2023-05-15T09:39:43.772Z,10.23
2023-05-15T09:42:13.444Z,10.55
2023-05-15T09:44:44.718Z,11.13
2023-05-15T09:47:13.745Z,11.38
2023-05-15T09:49:44.307Z,10.60
2023-05-15T09:52:11.590Z,11.83
2023-05-15T09:54:38.526Z,11.30
2023-05-15T09:57:10.777Z,12.18
2023-05-15T09:59:46.171Z,12.73
2023-05-15T10:02:34.582Z,13.02
2023-05-15T10:05:01.644Z,13.43
2023-05-15T10:07:30.136Z,13.38
2023-05-15T10:09:56.794Z,13.68
2023-05-15T10:12:24.007Z,15.05
2023-05-15T10:14:51.727Z,14.30
2023-05-15T10:17:20.259Z,13.67
2023-05-15T10:22:26.250Z,16.15
2023-05-15T10:25:01.195Z,16.05
2023-05-15T10:27:28.403Z,16.13
2023-05-15T10:29:56.189Z,17.63
2023-05-15T10:32:24.422Z,16.75
2023-05-15T10:34:51.611Z,16.25
2023-05-15T10:37:19.125Z,16.30
2023-05-15T10:39:47.379Z,17.73
2023-05-15T10:42:15.115Z,18.07
2023-05-15T10:44:42.153Z,17.98
2023-05-15T10:47:09.335Z,18.17
2023-05-15T10:49:36.280Z,17.92
2023-05-15T10:52:03.326Z,19.02
2023-05-15T10:54:30.538Z,18.23
2023-05-15T10:56:57.386Z,16.88
2023-05-15T10:59:32.144Z,15.32
2023-05-15T11:02:19.963Z,16.27
2023-05-15T11:04:46.908Z,16.02
2023-05-15T11:07:18.181Z,15.00
2023-05-15T11:09:44.727Z,14.48
2023-05-15T11:12:11.896Z,13.65
2023-05-15T11:14:44.183Z,13.52
2023-05-15T11:17:12.272Z,14.15
2023-05-15T11:19:55.773Z,13.40
2023-05-15T11:22:33.950Z,12.63
2023-05-15T11:25:03.885Z,12.05
2023-05-15T11:27:39.624Z,13.15
2023-05-15T11:30:22.975Z,11.57
2023-05-15T11:32:50.607Z,12.07
2023-05-15T11:35:36.030Z,12.10
2023-05-15T11:38:11.701Z,11.32
2023-05-15T11:40:52.738Z,12.55
2023-05-15T11:43:24.659Z,12.48
2023-05-15T11:45:56.186Z,12.33
2023-05-15T11:48:24.552Z,12.38
2023-05-15T11:50:53.745Z,10.93
2023-05-15T11:53:21.547Z,11.02
2023-05-15T11:55:48.073Z,10.57
2023-05-15T11:58:18.391Z,10.47
2023-05-15T12:00:46.886Z,10.63
2023-05-15T12:03:17.303Z,10.80
2023-05-15T12:05:54.200Z,11.35
2023-05-15T12:08:24.634Z,12.02
2023-05-15T12:10:51.087Z,11.47
2023-05-15T12:13:18.755Z,10.73
2023-05-15T12:15:46.919Z,10.55
2023-05-15T12:18:13.903Z,10.18
2023-05-15T12:20:46.553Z,10.05
2023-05-15T12:23:17.767Z,10.90
2023-05-15T12:25:47.399Z,11.82
2023-05-15T12:28:14.716Z,11.07
2023-05-15T12:30:44.860Z,10.32
2023-05-15T12:33:11.792Z,10.18
2023-05-15T12:35:43.588Z,9.60
2023-05-15T12:38:15.370Z,10.15
2023-05-15T12:40:44.336Z,9.23
2023-05-15T12:43:11.205Z,9.23
2023-05-15T12:45:42.034Z,9.07
2023-05-15T12:48:14.548Z,8.87
2023-05-15T12:50:43.919Z,8.50
2023-05-15T12:53:14.241Z,8.20
2023-05-15T12:55:41.210Z,7.15
2023-05-15T12:58:09.688Z,7.43
2023-05-15T13:00:38.571Z,7.03
2023-05-15T13:03:05.923Z,7.90
2023-05-15T13:05:34.142Z,7.00
2023-05-15T13:08:02.705Z,6.40
2023-05-15T13:10:32.620Z,5.90
2023-05-15T13:12:59.423Z,5.70
2023-05-15T13:15:44.138Z,5.78
2023-05-15T13:18:12.489Z,5.78
2023-05-15T13:20:41.143Z,6.95
2023-05-15T13:23:09.342Z,5.80
2023-05-15T13:25:36.253Z,5.63
2023-05-15T13:28:04.768Z,6.07
2023-05-15T13:30:32.965Z,5.30
2023-05-15T13:33:00.106Z,4.95
2023-05-15T13:35:27.243Z,6.45
2023-05-15T13:37:53.793Z,5.70
2023-05-15T13:40:21.194Z,6.90
2023-05-15T13:42:47.712Z,7.78
2023-05-15T13:45:16.427Z,7.80
2023-05-15T13:47:44.028Z,7.90
2023-05-15T13:50:13.173Z,8.30
2023-05-15T13:52:41.364Z,7.63
2023-05-15T13:55:09.850Z,7.55
2023-05-15T13:57:40.521Z,8.00
2023-05-15T14:00:12.608Z,8.38
2023-05-15T14:02:43.758Z,7.50
2023-05-15T14:05:12.200Z,7.40
2023-05-15T14:07:39.091Z,7.68
2023-05-15T14:10:06.483Z,7.40
2023-05-15T14:12:33.778Z,8.10
2023-05-15T14:15:01.205Z,7.70
2023-05-15T14:17:28.115Z,7.00
2023-05-15T14:19:54.979Z,6.80
2023-05-15T14:22:24.959Z,7.07
2023-05-15T14:24:55.135Z,5.95
2023-05-15T14:27:21.644Z,5.57
2023-05-15T14:29:49.380Z,5.55
2023-05-15T14:32:16.576Z,5.18
2023-05-15T14:34:43.808Z,5.22
2023-05-15T14:37:10.462Z,5.60
2023-05-15T14:39:37.132Z,5.27
2023-05-15T14:42:03.820Z,5.80
2023-05-15T14:44:30.304Z,5.82
2023-05-15T14:47:14.463Z,5.75
2023-05-15T14:49:40.937Z,5.38
2023-05-15T14:52:11.260Z,6.53
2023-05-15T14:54:38.967Z,5.85
2023-05-15T14:57:06.247Z,5.20
2023-05-15T14:59:32.775Z,4.55
2023-05-15T15:01:59.376Z,4.75
2023-05-15T15:04:30.578Z,4.70
2023-05-15T15:06:57.317Z,5.80
2023-05-15T15:09:25.685Z,4.82
2023-05-15T15:11:53.201Z,5.32
2023-05-15T15:14:19.866Z,6.03
2023-05-15T15:16:46.691Z,7.33
2023-05-15T15:19:13.940Z,5.40
2023-05-15T15:21:40.620Z,5.63
2023-05-15T15:24:07.554Z,5.45
2023-05-15T15:26:34.056Z,5.65
2023-05-15T15:29:03.407Z,5.73
2023-05-15T15:31:31.091Z,5.50
2023-05-15T15:33:58.124Z,5.50
2023-05-15T15:36:24.917Z,4.40
2023-05-15T15:38:51.589Z,4.18
2023-05-15T15:41:18.302Z,2.97
2023-05-15T15:43:44.877Z,3.63
2023-05-15T15:46:11.479Z,3.63
2023-05-15T15:48:38.058Z,3.60
2023-05-15T15:51:05.465Z,3.05
2023-05-15T15:53:34.293Z,3.30
2023-05-15T15:56:01.501Z,3.70
2023-05-15T15:58:28.065Z,3.53
2023-05-15T16:00:54.594Z,3.67
2023-05-15T16:03:21.290Z,3.75
2023-05-15T16:05:47.916Z,4.10
2023-05-15T16:08:14.409Z,4.03
2023-05-15T16:10:41.163Z,3.75
2023-05-15T16:13:07.705Z,3.90
2023-05-15T16:15:34.516Z,3.22
2023-05-15T16:18:01.233Z,3.40
2023-05-15T16:20:28.016Z,3.72
2023-05-15T16:22:54.799Z,4.05
2023-05-15T16:25:21.390Z,4.05
2023-05-15T16:27:47.887Z,3.92
2023-05-15T16:30:14.741Z,3.53
2023-05-15T16:32:41.304Z,3.88
2023-05-15T16:35:08.408Z,3.17
2023-05-15T16:37:35.213Z,3.40
2023-05-15T16:40:01.927Z,2.40
2023-05-15T16:42:28.510Z,2.93
2023-05-15T16:44:54.992Z,2.92
2023-05-15T16:47:21.553Z,3.35
2023-05-15T16:49:49.989Z,3.25
2023-05-15T16:52:17.069Z,3.25
2023-05-15T16:54:43.540Z,2.80
2023-05-15T16:57:10.021Z,2.28
2023-05-15T16:59:36.523Z,2.40
2023-05-15T17:02:03.193Z,2.15
2023-05-15T17:04:33.129Z,1.15
2023-05-15T17:06:59.868Z,1.40
2023-05-15T17:09:26.448Z,0.93
2023-05-15T17:11:52.970Z,1.15
2023-05-15T17:14:19.538Z,0.73
2023-05-15T17:16:46.102Z,0.77
2023-05-15T17:19:12.973Z,0.80
2023-05-15T17:21:39.644Z,0.70
2023-05-15T17:24:06.266Z,0.70
2023-05-15T17:26:32.693Z,1.05
2023-05-15T17:28:59.241Z,0.80
2023-05-15T17:31:26.943Z,1.00
2023-05-15T17:33:53.564Z,0.70
2023-05-15T17:36:20.117Z,0.80
2023-05-15T17:38:46.682Z,0.88
2023-05-15T17:41:13.239Z,1.05
2023-05-15T17:43:39.743Z,0.80
2023-05-15T17:46:09.809Z,0.90
2023-05-15T17:48:36.343Z,0.88
2023-05-15T17:51:02.827Z,1.10
2023-05-15T17:53:29.319Z,1.30
2023-05-15T17:55:55.946Z,1.00
2023-05-15T17:58:22.537Z,1.48
2023-05-15T18:00:51.217Z,0.95
2023-05-15T18:03:17.891Z,1.08
2023-05-15T18:05:47.741Z,1.00
2023-05-15T18:08:14.704Z,1.03
2023-05-15T18:10:41.235Z,1.05
2023-05-15T18:13:07.768Z,1.45
2023-05-15T18:15:35.320Z,1.38
2023-05-15T18:18:02.425Z,1.58
2023-05-15T18:20:29.180Z,1.27
2023-05-15T18:22:55.730Z,1.70
2023-05-15T18:25:22.264Z,1.67
2023-05-15T18:27:48.886Z,1.15
2023-05-15T18:30:15.522Z,1.10
2023-05-15T18:32:42.003Z,1.10
2023-05-15T18:35:08.963Z,0.73
2023-05-15T18:37:35.570Z,0.80
2023-05-15T18:40:02.218Z,0.80
2023-05-15T18:42:29.034Z,0.70
2023-05-15T18:44:55.479Z,0.80
2023-05-15T18:47:22.256Z,0.57
2023-05-15T18:49:48.914Z,1.15
2023-05-15T18:52:15.504Z,0.80
2023-05-15T18:54:42.022Z,0.63
2023-05-15T18:57:08.673Z,0.70
2023-05-15T18:59:35.216Z,0.75
2023-05-15T19:02:01.832Z,0.80
2023-05-15T19:04:28.391Z,0.57
2023-05-15T19:06:55.082Z,0.40
2023-05-15T19:09:21.583Z,0.70
2023-05-15T19:11:51.667Z,0.40
2023-05-15T19:14:18.817Z,0.50
2023-05-15T19:16:46.248Z,0.52
2023-05-15T19:19:13.202Z,0.40
2023-05-15T19:21:40.100Z,0.27
2023-05-15T19:24:06.778Z,0.40
2023-05-15T19:26:33.680Z,0.30
2023-05-15T19:29:00.420Z,0.40
2023-05-15T19:31:31.430Z,0.88
2023-05-15T19:33:59.616Z,0.20
2023-05-15T19:36:26.336Z,0.40
2023-05-15T19:38:53.011Z,0.20
2023-05-15T19:41:19.698Z,0.30
2023-05-15T19:43:47.040Z,0.20
2023-05-15T19:46:13.904Z,0.30
2023-05-15T19:48:40.881Z,0.35
2023-05-15T19:51:07.410Z,0.20
2023-05-15T19:53:34.125Z,0.30
2023-05-15T19:56:00.819Z,0.25
2023-05-15T19:58:27.450Z,0.40
2023-05-15T20:00:54.394Z,0.30
2023-05-15T20:03:21.766Z,0.20
2023-05-15T20:05:48.430Z,0.20
2023-05-15T20:08:16.973Z,0.30
2023-05-15T20:10:44.559Z,0.33
2023-05-15T20:13:11.644Z,0.40
2023-05-15T20:15:40.095Z,0.40
2023-05-15T20:18:07.573Z,0.50
2023-05-15T20:20:34.754Z,0.60
2023-05-15T20:23:01.337Z,0.40
2023-05-15T20:25:29.144Z,0.50
2023-05-15T20:27:58.542Z,0.35
2023-05-15T20:30:25.410Z,0.50
2023-05-15T20:32:52.093Z,0.70
2023-05-15T20:35:18.628Z,0.60
2023-05-15T20:37:46.082Z,0.40
2023-05-15T20:40:13.069Z,0.50
2023-05-15T20:42:39.986Z,0.50
2023-05-15T20:45:08.723Z,0.60
2023-05-15T20:47:35.890Z,0.60
2023-05-15T20:50:02.731Z,0.43
2023-05-15T20:52:29.384Z,0.63
2023-05-15T20:54:56.068Z,0.40
2023-05-15T20:57:22.630Z,0.30
2023-05-15T20:59:49.184Z,0.30
2023-05-15T21:02:16.052Z,0.50
2023-05-15T21:04:42.901Z,0.40
2023-05-15T21:07:09.961Z,0.40
2023-05-15T21:09:36.640Z,0.50
2023-05-15T21:12:04.165Z,0.77
2023-05-15T21:14:30.864Z,0.70
2023-05-15T21:16:57.681Z,0.80
2023-05-15T21:19:24.482Z,0.63
2023-05-15T21:21:51.160Z,0.60
2023-05-15T21:24:17.845Z,0.50
2023-05-15T21:26:44.377Z,0.65
2023-05-15T21:29:11.169Z,0.57
2023-05-15T21:31:38.363Z,0.60
2023-05-15T21:34:05.366Z,0.93
2023-05-15T21:36:34.947Z,1.00
2023-05-15T21:39:01.843Z,1.10
2023-05-15T21:41:36.342Z,0.65
2023-05-15T21:44:03.406Z,0.80
2023-05-15T21:46:30.219Z,1.15
2023-05-15T21:48:57.629Z,0.80
2023-05-15T21:51:24.083Z,0.93
2023-05-15T21:53:50.741Z,0.77
2023-05-15T21:56:17.279Z,1.33
2023-05-15T21:58:44.253Z,1.50
2023-05-15T22:01:10.911Z,0.90
2023-05-15T22:03:37.453Z,0.50
2023-05-15T22:06:04.270Z,0.60
2023-05-15T22:08:30.889Z,0.73
2023-05-15T22:10:57.434Z,1.05
2023-05-15T22:13:23.917Z,0.87
2023-05-15T22:15:50.538Z,0.95
2023-05-15T22:18:17.114Z,1.15
2023-05-15T22:20:45.046Z,0.80
2023-05-15T22:23:11.540Z,1.05
2023-05-15T22:25:37.997Z,1.00
2023-05-15T22:28:04.498Z,0.65
2023-05-15T22:30:31.271Z,0.80
2023-05-15T22:32:57.767Z,0.73
2023-05-15T22:35:24.789Z,0.68
2023-05-15T22:37:51.522Z,0.83
2023-05-15T22:40:18.077Z,0.93
2023-05-15T22:42:44.651Z,0.85
2023-05-15T22:45:11.543Z,0.80
2023-05-15T22:47:38.184Z,0.98
2023-05-15T22:50:05.159Z,0.77
2023-05-15T22:52:31.660Z,0.82
2023-05-15T22:54:58.154Z,0.90
2023-05-15T22:57:26.912Z,1.02
2023-05-15T22:59:53.364Z,1.00
2023-05-15T23:02:19.926Z,0.77
2023-05-15T23:04:46.874Z,1.15
2023-05-15T23:07:13.649Z,0.88
2023-05-15T23:09:40.294Z,1.13
2023-05-15T23:12:07.337Z,1.13
2023-05-15T23:14:34.278Z,0.77
2023-05-15T23:17:00.835Z,0.98
2023-05-15T23:19:27.329Z,0.80
2023-05-15T23:21:53.956Z,0.80
2023-05-15T23:24:20.517Z,0.90
2023-05-15T23:26:47.176Z,0.53
2023-05-15T23:29:13.744Z,0.98
2023-05-15T23:31:40.469Z,0.80
2023-05-15T23:34:07.098Z,0.63
2023-05-15T23:36:33.609Z,0.60
2023-05-15T23:39:00.059Z,0.60
2023-05-15T23:41:26.527Z,0.30
2023-05-15T23:43:53.408Z,0.90
2023-05-15T23:46:19.943Z,0.60
2023-05-15T23:48:46.468Z,0.45
2023-05-15T23:51:13.149Z,1.30
2023-05-15T23:53:39.581Z,0.63
2023-05-15T23:56:07.068Z,0.80
2023-05-15T23:58:33.676Z,0.82
